Time;durP1;ratioP1;P1;durP2;ratioP2;P2;SDS_P1;SDS_P2;PMS_P1;PMS_P2;Temp;Humidity;BMP_temperature;BMP_pressure;BME280_temperature;BME280_humidity;BME280_pressure;Samples;Min_cycle;Max_cycle;Signal;HPM_P1;HPM_P2
2022/10/28 00:00:48;;;;;;;17.90;10.90;;;;;;;10.94;100.00;100686.30;106147;1289;67518;-76
2022/10/28 00:03:42;;;;;;;16.20;9.70;;;;;;;10.95;100.00;100692.46;106111;1283;72642;-74
2022/10/28 00:06:34;;;;;;;18.70;9.50;;;;;;;10.95;100.00;100692.65;106123;1288;59318;-74
2022/10/28 00:09:22;;;;;;;17.50;9.90;;;;;;;10.95;100.00;100694.20;106136;1281;61219;-76
2022/10/28 00:12:10;;;;;;;19.40;10.70;;;;;;;10.97;100.00;100689.50;106118;1282;72722;-76
2022/10/28 00:14:58;;;;;;;18.50;11.40;;;;;;;10.96;100.00;100686.48;106015;1289;67523;-74
2022/10/28 00:17:45;;;;;;;16.70;9.40;;;;;;;10.96;100.00;100687.23;106128;1288;72853;-74
2022/10/28 00:20:33;;;;;;;21.00;11.40;;;;;;;10.94;100.00;100680.95;106116;1282;59289;-74
2022/10/28 00:23:22;;;;;;;19.60;12.00;;;;;;;10.93;100.00;100684.25;106119;1289;59270;-75
2022/10/28 00:26:17;;;;;;;21.40;12.40;;;;;;;10.93;100.00;100680.19;106135;1281;72872;-75
2022/10/28 00:29:12;;;;;;;20.00;12.20;;;;;;;10.92;100.00;100679.67;106015;1289;68120;-74
2022/10/28 00:32:00;;;;;;;19.50;12.30;;;;;;;10.92;100.00;100674.68;106040;1290;71712;-74
2022/10/28 00:34:48;;;;;;;21.20;12.00;;;;;;;10.94;100.00;100674.41;106107;1289;59314;-75
2022/10/28 00:37:36;;;;;;;18.30;11.30;;;;;;;10.95;100.00;100673.44;106125;1288;59964;-74
2022/10/28 00:40:24;;;;;;;19.00;10.90;;;;;;;10.95;100.00;100671.83;106141;1281;71497;-75
2022/10/28 00:43:11;;;;;;;22.40;11.70;;;;;;;10.96;100.00;100671.23;106135;1288;67758;-74
2022/10/28 00:46:00;;;;;;;18.10;11.00;;;;;;;10.96;100.00;100664.30;106110;1281;73107;-75
2022/10/28 00:48:54;;;;;;;16.90;10.80;;;;;;;10.96;100.00;100660.20;106149;1288;58050;-74
2022/10/28 00:51:44;;;;;;;20.10;11.90;;;;;;;10.98;100.00;100659.73;106124;1289;59711;-75
2022/10/28 00:54:33;;;;;;;20.40;12.60;;;;;;;10.99;100.00;100660.92;106142;1281;74096;-74
2022/10/28 00:57:27;;;;;;;18.70;11.60;;;;;;;11.00;100.00;100659.09;106125;1281;68577;-75
2022/10/28 01:00:15;;;;;;;20.10;11.90;;;;;;;11.01;100.00;100658.29;105993;1288;73633;-74
2022/10/28 01:03:03;;;;;;;20.00;11.90;;;;;;;11.03;100.00;100660.30;106097;1288;59358;-75
2022/10/28 01:05:52;;;;;;;20.60;12.80;;;;;;;11.04;100.00;100657.71;106137;1288;58599;-75
2022/10/28 01:08:39;;;;;;;20.30;12.20;;;;;;;11.07;100.00;100654.30;106027;1292;74208;-74
2022/10/28 01:11:39;;;;;;;20.10;12.10;;;;;;;11.08;100.00;100649.45;106123;1289;68002;-74
2022/10/28 01:14:35;;;;;;;18.30;10.60;;;;;;;11.10;100.00;100645.56;106102;1289;72438;-75
2022/10/28 01:17:38;;;;;;;16.30;10.00;;;;;;;11.12;100.00;100641.02;106119;1289;60374;-74
2022/10/28 01:20:43;;;;;;;20.20;12.00;;;;;;;11.13;100.00;100636.84;106086;1289;60047;-75
2022/10/28 01:24:07;;;;;;;21.90;13.00;;;;;;;11.15;100.00;100635.61;106133;1289;72805;-74
2022/10/28 01:27:16;;;;;;;19.30;11.90;;;;;;;11.16;100.00;100635.23;106135;1289;68635;-74
2022/10/28 01:30:13;;;;;;;20.70;11.80;;;;;;;11.16;100.00;100633.80;106119;1282;73427;-75
2022/10/28 01:33:15;;;;;;;21.00;12.50;;;;;;;11.16;100.00;100629.02;106085;1281;58363;-74
2022/10/28 01:36:23;;;;;;;20.60;12.10;;;;;;;11.16;100.00;100627.55;106044;1289;59060;-74
2022/10/28 01:39:20;;;;;;;22.90;12.40;;;;;;;11.17;100.00;100625.01;106036;1288;71487;-78
2022/10/28 01:42:17;;;;;;;19.70;12.00;;;;;;;11.17;100.00;100623.25;106053;1289;66723;-74
2022/10/28 01:45:29;;;;;;;22.40;12.80;;;;;;;11.17;100.00;100619.16;106132;1281;72315;-76
2022/10/28 01:48:35;;;;;;;23.50;13.60;;;;;;;11.18;100.00;100617.47;106031;1287;58045;-75
2022/10/28 01:51:50;;;;;;;21.50;13.50;;;;;;;11.18;100.00;100614.44;105963;1281;59217;-74
2022/10/28 01:54:40;;;;;;;20.90;12.90;;;;;;;11.17;100.00;100604.76;106020;1289;73834;-74
2022/10/28 01:57:32;;;;;;;23.80;14.10;;;;;;;11.17;100.00;100604.21;106123;1281;67890;-74
2022/10/28 02:00:20;;;;;;;18.50;10.70;;;;;;;11.17;100.00;100603.70;106131;1285;72335;-76
2022/10/28 02:03:08;;;;;;;23.70;12.90;;;;;;;11.17;100.00;100601.23;106109;1296;60461;-74
2022/10/28 02:05:59;;;;;;;20.50;12.70;;;;;;;11.17;100.00;100595.70;106135;1281;61152;-75
2022/10/28 02:09:04;;;;;;;21.30;12.70;;;;;;;11.19;100.00;100595.05;106128;1288;72787;-75
2022/10/28 02:12:13;;;;;;;20.70;12.30;;;;;;;11.21;100.00;100594.73;106125;1290;66700;-75
2022/10/28 02:15:14;;;;;;;21.80;12.50;;;;;;;11.22;100.00;100588.04;106121;1280;72472;-75
2022/10/28 02:18:17;;;;;;;21.00;12.30;;;;;;;11.24;100.00;100588.11;106113;1287;58772;-74
2022/10/28 02:21:23;;;;;;;25.10;13.60;;;;;;;11.24;100.00;100584.02;106138;1289;61378;-74
2022/10/28 02:24:31;;;;;;;21.90;13.70;;;;;;;11.27;100.00;100583.30;105989;1281;74226;-75
2022/10/28 02:27:39;;;;;;;19.00;12.10;;;;;;;11.28;100.00;100583.60;106130;1289;67655;-75
2022/10/28 02:30:53;;;;;;;23.90;13.40;;;;;;;11.28;100.00;100580.04;106101;1289;73504;-75
2022/10/28 02:33:43;;;;;;;22.50;12.00;;;;;;;11.29;100.00;100584.02;105980;1289;58096;-74
2022/10/28 02:36:36;;;;;;;21.40;12.90;;;;;;;11.30;100.00;100581.10;106125;1281;60355;-75
2022/10/28 02:39:41;;;;;;;21.50;12.00;;;;;;;11.31;100.00;100577.17;106004;1289;72750;-75
2022/10/28 02:42:39;;;;;;;21.00;12.70;;;;;;;11.32;100.00;100576.91;106015;1281;67625;-76
2022/10/28 02:45:42;;;;;;;20.60;13.00;;;;;;;11.32;100.00;100574.71;106124;1289;72835;-75
2022/10/28 02:48:42;;;;;;;21.60;12.10;;;;;;;11.34;100.00;100571.73;106126;1281;59457;-76
2022/10/28 02:51:39;;;;;;;21.70;12.30;;;;;;;11.36;100.00;100571.81;106000;1289;58637;-75
2022/10/28 02:54:36;;;;;;;18.50;12.10;;;;;;;11.35;100.00;100566.36;106056;1289;71921;-75
2022/10/28 02:57:31;;;;;;;19.10;10.90;;;;;;;11.34;100.00;100567.46;106039;1297;66853;-74
2022/10/28 03:00:23;;;;;;;20.60;13.00;;;;;;;11.34;100.00;100565.17;106119;1289;71462;-74
2022/10/28 03:03:12;;;;;;;23.00;12.90;;;;;;;11.36;100.00;100566.14;106125;1282;60445;-75
2022/10/28 03:05:59;;;;;;;24.00;13.00;;;;;;;11.36;100.00;100562.52;106062;1289;60054;-74
2022/10/28 03:08:47;;;;;;;23.40;14.20;;;;;;;11.38;100.00;100558.35;106112;1281;73817;-74
2022/10/28 03:11:35;;;;;;;19.70;11.80;;;;;;;11.39;100.00;100555.38;106114;1289;67709;-75
2022/10/28 03:14:23;;;;;;;20.00;12.10;;;;;;;11.40;100.00;100553.18;106117;1281;72364;-75
2022/10/28 03:17:11;;;;;;;19.50;12.50;;;;;;;11.42;100.00;100549.86;106088;1289;59810;-75
2022/10/28 03:19:58;;;;;;;22.90;12.50;;;;;;;11.43;100.00;100546.05;106120;1280;61325;-76
2022/10/28 03:22:46;;;;;;;20.80;12.20;;;;;;;11.44;100.00;100545.46;106012;1281;74065;-77
2022/10/28 03:25:40;;;;;;;16.30;10.10;;;;;;;11.44;100.00;100544.73;105857;1289;68490;-76
2022/10/28 03:28:33;;;;;;;19.90;11.90;;;;;;;11.44;100.00;100538.73;105770;1291;73688;-75
2022/10/28 03:31:22;;;;;;;18.80;11.00;;;;;;;11.44;100.00;100539.63;105854;1289;57879;-76
2022/10/28 03:34:10;;;;;;;20.20;11.80;;;;;;;11.44;100.00;100535.35;106131;1289;61111;-76
2022/10/28 03:36:57;;;;;;;16.90;10.60;;;;;;;11.44;100.00;100524.63;106108;1287;74071;-75
2022/10/28 03:39:45;;;;;;;18.50;11.40;;;;;;;11.44;100.00;100522.52;106011;1281;67866;-75
2022/10/28 03:42:33;;;;;;;18.50;11.60;;;;;;;11.44;100.00;100521.98;106099;1289;71268;-76
2022/10/28 03:45:26;;;;;;;21.60;11.00;;;;;;;11.45;100.00;100518.91;106126;1289;59288;-75
2022/10/28 03:48:19;;;;;;;19.90;11.20;;;;;;;11.46;100.00;100517.78;106116;1289;58616;-75
2022/10/28 03:51:07;;;;;;;21.90;11.90;;;;;;;11.45;100.00;100513.93;106104;1290;71721;-75
2022/10/28 03:53:55;;;;;;;20.40;12.50;;;;;;;11.45;100.00;100512.19;106014;1289;67925;-75
2022/10/28 03:56:43;;;;;;;21.50;13.20;;;;;;;11.44;100.00;100511.33;106102;1289;72120;-75
2022/10/28 03:59:31;;;;;;;20.50;11.70;;;;;;;11.44;100.00;100515.96;106114;1281;60394;-75
2022/10/28 04:02:19;;;;;;;20.70;11.40;;;;;;;11.42;100.00;100508.09;106093;1296;60046;-75
2022/10/28 04:05:07;;;;;;;21.10;12.50;;;;;;;11.41;100.00;100504.42;106114;1288;74099;-76
2022/10/28 04:07:55;;;;;;;22.80;11.90;;;;;;;11.42;100.00;100499.59;106093;1289;68934;-77
2022/10/28 04:10:44;;;;;;;20.20;12.10;;;;;;;11.40;100.00;100492.77;106098;1288;72305;-74
2022/10/28 04:13:34;;;;;;;18.70;10.60;;;;;;;11.39;100.00;100484.85;106089;1288;59305;-75
2022/10/28 04:16:22;;;;;;;18.10;9.50;;;;;;;11.38;100.00;100481.89;106115;1287;58718;-75
2022/10/28 04:19:10;;;;;;;19.30;11.30;;;;;;;11.37;100.00;100481.48;105913;1282;231221;-75
2022/10/28 04:21:57;;;;;;;23.50;13.60;;;;;;;11.38;100.00;100479.10;106110;1288;68600;-76
2022/10/28 04:24:45;;;;;;;19.70;11.20;;;;;;;11.38;100.00;100479.40;106087;1295;73465;-75
2022/10/28 04:27:33;;;;;;;20.40;11.80;;;;;;;11.40;100.00;100483.02;106105;1289;59494;-77
2022/10/28 04:30:21;;;;;;;18.90;12.20;;;;;;;11.42;100.00;100482.52;106134;1289;58616;-76
2022/10/28 04:33:11;;;;;;;21.80;12.10;;;;;;;11.43;100.00;100478.73;106134;1289;73134;-74
2022/10/28 04:35:58;;;;;;;19.20;11.60;;;;;;;11.44;100.00;100480.41;106021;1284;68557;-75
2022/10/28 04:38:46;;;;;;;19.00;10.50;;;;;;;11.43;100.00;100475.15;106098;1281;72229;-75
2022/10/28 04:41:33;;;;;;;20.20;12.00;;;;;;;11.42;100.00;100472.23;106108;1289;57506;-74
2022/10/28 04:44:21;;;;;;;22.90;12.70;;;;;;;11.41;100.00;100469.06;106112;1287;58710;-74
2022/10/28 04:47:09;;;;;;;19.90;12.40;;;;;;;11.42;100.00;100461.20;106010;1287;72804;-74
2022/10/28 04:49:57;;;;;;;21.00;13.60;;;;;;;11.43;100.00;100457.77;106107;1289;66008;-77
2022/10/28 04:52:45;;;;;;;21.10;12.70;;;;;;;11.42;100.00;100451.06;105957;1288;70990;-75
2022/10/28 04:55:32;;;;;;;20.50;13.20;;;;;;;11.42;100.00;100448.41;105982;1290;59324;-74
2022/10/28 04:58:20;;;;;;;21.50;14.00;;;;;;;11.43;100.00;100446.39;106111;1289;60307;-75
2022/10/28 05:01:09;;;;;;;20.50;12.60;;;;;;;11.44;100.00;100448.66;105835;1294;74124;-74
2022/10/28 05:03:57;;;;;;;19.90;12.70;;;;;;;11.44;100.00;100445.23;106095;1282;69388;-75
2022/10/28 05:06:48;;;;;;;22.10;13.90;;;;;;;11.45;100.00;100438.23;106082;1288;72478;-76
2022/10/28 05:09:35;;;;;;;21.00;13.70;;;;;;;11.46;100.00;100437.12;106024;1292;59352;-76
2022/10/28 05:12:23;;;;;;;20.60;12.60;;;;;;;11.47;100.00;100440.02;106027;1289;60339;-76
2022/10/28 05:15:13;;;;;;;21.40;14.20;;;;;;;11.49;100.00;100437.92;106009;1284;71851;-75
2022/10/28 05:18:01;;;;;;;21.70;13.10;;;;;;;11.51;100.00;100437.80;106085;1287;67807;-75
2022/10/28 05:20:53;;;;;;;25.30;13.40;;;;;;;11.52;100.00;100437.85;106096;1295;73924;-75
2022/10/28 05:23:41;;;;;;;19.70;11.80;;;;;;;11.53;100.00;100438.00;106123;1290;59281;-73
2022/10/28 05:26:29;;;;;;;20.40;12.90;;;;;;;11.50;100.00;100431.45;106095;1289;61286;-76
2022/10/28 05:29:18;;;;;;;23.30;13.60;;;;;;;11.49;100.00;100427.83;106114;1289;71498;-75
2022/10/28 05:32:06;;;;;;;20.30;12.10;;;;;;;11.48;100.00;100423.23;106103;1282;67690;-74
2022/10/28 05:34:54;;;;;;;23.10;13.10;;;;;;;11.48;100.00;100416.72;106089;1281;72333;-74
2022/10/28 05:37:42;;;;;;;23.20;13.70;;;;;;;11.47;100.00;100411.61;106115;1287;57852;-75
2022/10/28 05:40:34;;;;;;;22.00;12.70;;;;;;;11.46;100.00;100407.60;106067;1288;60083;-74
2022/10/28 05:43:22;;;;;;;21.70;13.40;;;;;;;11.42;100.00;100404.31;106090;1282;73784;-74
2022/10/28 05:46:10;;;;;;;20.70;12.80;;;;;;;11.38;100.00;100401.60;106081;1288;66888;-74
2022/10/28 05:49:00;;;;;;;25.50;14.50;;;;;;;11.33;100.00;100397.58;105994;1289;71927;-74
2022/10/28 05:51:48;;;;;;;19.00;12.40;;;;;;;11.29;100.00;100402.17;106120;1287;59374;-75
2022/10/28 05:54:35;;;;;;;22.20;13.80;;;;;;;11.26;100.00;100406.95;106094;1296;60107;-76
2022/10/28 05:57:23;;;;;;;24.20;15.10;;;;;;;11.24;100.00;100408.32;106116;1288;72485;-76
2022/10/28 06:00:13;;;;;;;25.00;15.40;;;;;;;11.25;100.00;100411.46;106146;1286;66410;-74
2022/10/28 06:03:09;;;;;;;25.60;15.70;;;;;;;11.27;100.00;100412.09;106106;1289;72288;-75
2022/10/28 06:05:58;;;;;;;27.70;16.00;;;;;;;11.30;100.00;100413.80;105986;1296;59425;-75
2022/10/28 06:08:45;;;;;;;24.00;14.20;;;;;;;11.33;100.00;100416.73;106131;1286;57722;-74
2022/10/28 06:11:34;;;;;;;25.10;15.30;;;;;;;11.34;100.00;100421.98;105991;1285;74002;-74
2022/10/28 06:14:24;;;;;;;24.00;14.50;;;;;;;11.36;100.00;100421.71;105947;1288;68101;-77
2022/10/28 06:17:11;;;;;;;25.70;14.30;;;;;;;11.36;100.00;100413.14;106093;1285;72349;-75
2022/10/28 06:19:59;;;;;;;25.30;14.30;;;;;;;11.37;100.00;100409.03;105976;1288;60556;-75
2022/10/28 06:22:53;;;;;;;23.20;14.50;;;;;;;11.38;100.00;100408.40;106013;1287;59997;-75
2022/10/28 06:25:42;;;;;;;30.00;17.80;;;;;;;11.39;100.00;100405.95;106002;1289;73951;-76
2022/10/28 06:28:30;;;;;;;25.20;15.80;;;;;;;11.45;100.00;100408.41;106115;1281;68073;-76
2022/10/28 06:31:18;;;;;;;25.60;16.60;;;;;;;11.50;100.00;100406.02;106101;1295;73834;-77
2022/10/28 06:34:08;;;;;;;30.50;17.70;;;;;;;11.58;100.00;100408.65;106093;1289;60361;-79
2022/10/28 06:36:55;;;;;;;28.50;16.30;;;;;;;11.69;100.00;100411.00;106010;1287;60205;-74
2022/10/28 06:39:44;;;;;;;26.40;16.60;;;;;;;11.83;100.00;100410.61;106105;1294;74270;-75
2022/10/28 06:42:32;;;;;;;24.90;15.70;;;;;;;11.97;100.00;100404.45;106089;1289;67770;-75
2022/10/28 06:45:19;;;;;;;26.90;14.10;;;;;;;12.09;100.00;100400.98;106082;1287;71856;-75
2022/10/28 06:48:09;;;;;;;31.10;17.60;;;;;;;12.24;100.00;100401.80;106067;1288;59404;-74
2022/10/28 06:50:57;;;;;;;27.10;16.60;;;;;;;12.38;100.00;100397.96;106021;1289;60039;-76
2022/10/28 06:53:51;;;;;;;25.80;16.20;;;;;;;12.48;100.00;100395.23;106119;1281;72844;-74
2022/10/28 06:56:38;;;;;;;25.90;15.60;;;;;;;12.57;100.00;100389.91;106127;1288;68216;-75
2022/10/28 06:59:26;;;;;;;24.40;15.20;;;;;;;12.60;100.00;100394.30;106093;1288;73737;-74
2022/10/28 07:02:17;;;;;;;26.50;15.60;;;;;;;12.59;100.00;100394.35;106099;1288;60599;-75
2022/10/28 07:05:06;;;;;;;23.20;14.50;;;;;;;12.56;100.00;100399.01;106109;1287;60953;-75
2022/10/28 07:07:53;;;;;;;24.90;15.20;;;;;;;12.53;100.00;100388.44;106095;1289;74171;-74
2022/10/28 07:10:42;;;;;;;22.90;14.00;;;;;;;12.53;100.00;100386.31;106115;1289;67312;-75
2022/10/28 07:13:30;;;;;;;22.10;13.20;;;;;;;12.63;100.00;100384.61;106092;1281;72310;-75
2022/10/28 07:16:18;;;;;;;21.70;12.80;;;;;;;13.30;100.00;100384.27;106119;1289;57855;-71
2022/10/28 07:19:06;;;;;;;21.30;13.00;;;;;;;14.52;97.46;100401.65;106102;1296;60148;-74
2022/10/28 07:21:53;;;;;;;21.60;14.00;;;;;;;15.33;90.49;100399.52;106125;1288;73860;-75
2022/10/28 07:24:41;;;;;;;19.70;12.60;;;;;;;16.03;86.08;100396.23;106131;1289;67535;-75
2022/10/28 07:27:29;;;;;;;19.10;12.30;;;;;;;15.61;84.85;100397.64;106112;1286;71407;-74
2022/10/28 07:30:17;;;;;;;19.50;12.90;;;;;;;16.16;83.76;100396.25;106085;1281;59288;-74
2022/10/28 07:33:05;;;;;;;18.60;11.70;;;;;;;16.69;80.04;100390.03;106118;1287;58804;-74
2022/10/28 07:35:53;;;;;;;21.00;13.00;;;;;;;16.10;81.57;100387.20;106106;1285;73738;-74
2022/10/28 07:38:40;;;;;;;23.30;13.50;;;;;;;15.73;83.07;100393.69;106109;1287;68801;-75
2022/10/28 07:41:28;;;;;;;19.30;12.20;;;;;;;15.52;84.69;100393.65;106103;1288;72524;-75
2022/10/28 07:44:16;;;;;;;19.30;12.10;;;;;;;15.27;85.64;100396.70;106111;1291;59454;-74
2022/10/28 07:47:04;;;;;;;20.30;12.40;;;;;;;15.13;86.79;100400.34;106127;1288;59300;-74
2022/10/28 07:49:53;;;;;;;19.60;12.60;;;;;;;15.35;86.77;100391.48;106104;1289;74245;-75
2022/10/28 07:52:41;;;;;;;20.50;13.10;;;;;;;15.52;84.87;100388.83;106113;1287;67708;-75
2022/10/28 07:55:29;;;;;;;17.60;10.90;;;;;;;15.28;86.00;100390.32;106081;1289;73479;-75
2022/10/28 07:58:16;;;;;;;20.90;12.70;;;;;;;15.12;86.96;100386.63;106108;1288;58534;-74
2022/10/28 08:01:08;;;;;;;18.90;11.50;;;;;;;15.13;87.70;100381.41;106127;1289;61466;-74
2022/10/28 08:03:56;;;;;;;20.20;13.00;;;;;;;15.83;84.86;100376.83;106082;1281;72735;-75
2022/10/28 08:06:44;;;;;;;18.40;11.50;;;;;;;17.03;79.32;100368.65;106089;1286;67917;-74
2022/10/28 08:09:33;;;;;;;19.50;12.60;;;;;;;17.92;76.04;100363.89;106101;1279;73893;-75
2022/10/28 08:12:21;;;;;;;18.60;11.10;;;;;;;18.95;69.96;100357.62;106103;1289;57713;-74
2022/10/28 08:15:09;;;;;;;16.90;11.30;;;;;;;18.22;70.26;100360.82;106128;1288;60178;-75
2022/10/28 08:17:57;;;;;;;20.20;13.40;;;;;;;17.72;72.24;100358.42;106112;1282;72970;-75
2022/10/28 08:20:45;;;;;;;20.20;13.60;;;;;;;18.59;69.56;100361.05;106129;1289;67684;-75
2022/10/28 08:23:34;;;;;;;19.90;13.10;;;;;;;19.82;65.93;100358.13;106119;1285;72390;-74
2022/10/28 08:26:21;;;;;;;20.80;12.90;;;;;;;20.98;60.75;100359.75;106144;1288;57226;-75
2022/10/28 08:29:11;;;;;;;20.30;12.70;;;;;;;22.03;58.26;100355.75;106112;1288;58825;-74
2022/10/28 08:31:59;;;;;;;18.40;11.70;;;;;;;22.65;54.32;100354.42;106135;1289;72037;-75
2022/10/28 08:34:46;;;;;;;18.20;9.60;;;;;;;23.46;51.83;100347.52;106122;1287;68616;-73
2022/10/28 08:37:34;;;;;;;17.30;11.40;;;;;;;23.20;50.73;100346.22;106018;1291;73439;-74
2022/10/28 08:40:35;;;;;;;16.20;10.70;;;;;;;23.65;50.38;100336.71;106083;1296;58635;-75
2022/10/28 08:43:49;;;;;;;17.80;11.00;;;;;;;24.29;48.48;100332.54;106012;1288;61252;-73
2022/10/28 08:47:31;;;;;;;16.70;10.10;;;;;;;23.51;49.12;100330.84;106039;1288;73951;-74
2022/10/28 08:50:22;;;;;;;15.60;9.20;;;;;;;23.29;50.41;100322.67;105540;1296;68644;-74
2022/10/28 08:53:53;;;;;;;16.60;9.40;;;;;;;23.73;49.33;100312.45;105493;1297;72334;-73
2022/10/28 08:56:46;;;;;;;15.70;9.50;;;;;;;24.37;47.84;100310.96;105548;1296;57800;-74
2022/10/28 08:59:40;;;;;;;15.70;9.60;;;;;;;24.91;46.17;100308.56;105348;1304;60377;-75
2022/10/28 09:02:43;;;;;;;15.40;10.20;;;;;;;25.21;44.94;100304.45;105464;1297;72808;-74
2022/10/28 09:05:31;;;;;;;15.10;10.00;;;;;;;25.29;43.99;100301.92;105566;1300;68647;-73
2022/10/28 09:08:27;;;;;;;16.00;9.90;;;;;;;25.89;43.79;100300.23;105531;1305;73922;-74
2022/10/28 09:11:38;;;;;;;19.10;9.70;;;;;;;26.66;42.40;100291.84;105458;1301;57706;-74
2022/10/28 09:14:55;;;;;;;15.50;9.90;;;;;;;26.82;41.21;100282.33;105442;1298;60237;-74
2022/10/28 09:18:03;;;;;;;13.30;8.40;;;;;;;26.58;40.93;100279.48;105469;1298;72829;-74
2022/10/28 09:20:56;;;;;;;15.20;8.30;;;;;;;24.81;44.55;100277.80;105561;1296;68638;-75
2022/10/28 09:23:55;;;;;;;15.00;10.10;;;;;;;25.05;44.82;100268.53;105550;1296;72904;-75
2022/10/28 09:26:51;;;;;;;17.10;9.60;;;;;;;25.90;43.54;100271.72;105677;1296;57667;-74
2022/10/28 09:30:28;;;;;;;20.20;8.80;;;;;;;26.58;41.50;100274.16;106138;1282;61655;-75
2022/10/28 09:33:33;;;;;;;16.40;9.70;;;;;;;25.90;42.12;100276.19;106101;1289;73932;-75
2022/10/28 09:36:33;;;;;;;15.00;7.40;;;;;;;26.18;41.87;100276.23;106119;1287;67547;-74
2022/10/28 09:39:28;;;;;;;18.90;9.00;;;;;;;24.63;44.83;100274.09;106102;1288;72433;-74
2022/10/28 09:42:27;;;;;;;14.20;8.30;;;;;;;25.34;44.99;100266.99;106008;1289;59180;-74
2022/10/28 09:45:26;;;;;;;14.70;8.00;;;;;;;26.35;42.30;100266.03;106111;1289;58979;-75
2022/10/28 09:48:30;;;;;;;13.40;8.20;;;;;;;27.20;40.53;100255.00;106134;1289;71687;-75
2022/10/28 09:52:17;;;;;;;12.30;7.10;;;;;;;27.66;38.95;100253.51;106137;1284;67581;-75
2022/10/28 09:55:18;;;;;;;12.50;7.20;;;;;;;27.02;39.33;100255.15;106055;1289;71026;-74
2022/10/28 09:58:09;;;;;;;14.10;7.70;;;;;;;26.47;41.29;100260.42;106098;1288;57255;-74
2022/10/28 10:00:56;;;;;;;13.80;7.90;;;;;;;26.28;41.88;100256.38;106130;1288;60056;-74
2022/10/28 10:03:49;;;;;;;14.70;8.80;;;;;;;26.66;41.00;100249.69;106122;1288;73819;-74
2022/10/28 10:06:41;;;;;;;15.50;8.70;;;;;;;25.92;42.60;100246.84;106168;1289;66360;-75
2022/10/28 10:09:34;;;;;;;19.70;9.70;;;;;;;26.25;41.79;100253.23;106022;1289;72703;-75
2022/10/28 10:12:22;;;;;;;22.70;10.40;;;;;;;25.62;42.99;100248.34;106113;1289;57188;-74
2022/10/28 10:15:18;;;;;;;22.10;10.80;;;;;;;24.69;44.86;100245.78;106031;1290;58588;-74
2022/10/28 10:18:14;;;;;;;20.70;10.30;;;;;;;23.54;47.54;100248.02;106026;1297;73073;-75
2022/10/28 10:21:02;;;;;;;23.50;11.30;;;;;;;22.39;50.93;100252.13;106133;1293;67711;-72
2022/10/28 10:23:50;;;;;;;29.60;11.50;;;;;;;21.66;53.85;100253.86;106103;1289;73419;-74
2022/10/28 10:26:38;;;;;;;23.70;11.70;;;;;;;21.49;54.62;100250.32;106113;1289;58867;-75
2022/10/28 10:29:27;;;;;;;30.60;12.50;;;;;;;22.17;53.78;100244.85;106109;1288;61219;-74
2022/10/28 10:32:26;;;;;;;27.90;11.30;;;;;;;23.51;50.24;100238.09;105941;1290;73807;-74
2022/10/28 10:35:30;;;;;;;27.90;12.00;;;;;;;24.15;48.66;100234.50;106139;1285;66336;-74
2022/10/28 10:38:17;;;;;;;30.80;12.40;;;;;;;25.05;46.26;100229.06;105931;1292;73490;-75
2022/10/28 10:41:05;;;;;;;37.50;13.00;;;;;;;24.70;46.45;100222.05;105993;1291;58197;-74
2022/10/28 10:43:53;;;;;;;25.10;10.40;;;;;;;25.17;45.98;100215.98;106092;1282;61237;-74
2022/10/28 10:46:41;;;;;;;15.20;8.40;;;;;;;25.82;43.94;100213.52;106124;1289;74155;-75
2022/10/28 10:49:29;;;;;;;15.60;8.30;;;;;;;25.37;44.47;100216.22;106142;1289;66521;-74
2022/10/28 10:52:22;;;;;;;13.30;7.80;;;;;;;24.55;45.86;100210.17;106122;1286;70997;-74
2022/10/28 10:55:29;;;;;;;15.00;8.00;;;;;;;25.43;44.79;100217.63;106043;1288;57214;-74
2022/10/28 10:58:22;;;;;;;13.50;8.20;;;;;;;26.48;42.93;100216.84;106113;1288;61596;-74
2022/10/28 11:01:18;;;;;;;12.20;7.20;;;;;;;26.53;42.09;100214.48;106033;1292;71371;-74
2022/10/28 11:04:14;;;;;;;13.70;7.50;;;;;;;27.13;40.76;100212.52;106002;1291;68635;-74
2022/10/28 11:07:02;;;;;;;12.80;7.40;;;;;;;26.42;41.83;100214.28;105998;1288;72461;-74
2022/10/28 11:09:50;;;;;;;14.40;7.60;;;;;;;25.31;43.27;100214.45;106088;1288;58906;-73
2022/10/28 11:12:51;;;;;;;14.80;8.10;;;;;;;24.01;45.98;100216.42;106003;1284;58730;-75
2022/10/28 11:15:38;;;;;;;14.70;7.80;;;;;;;22.84;49.09;100218.68;106009;1292;73852;-75
2022/10/28 11:18:28;;;;;;;16.90;8.10;;;;;;;22.88;49.88;100213.38;106021;1287;67505;-75
2022/10/28 11:21:32;;;;;;;16.20;7.40;;;;;;;22.49;50.87;100214.91;106130;1289;71151;-75
2022/10/28 11:24:50;;;;;;;15.50;7.70;;;;;;;22.02;52.34;100222.20;106134;1289;57154;-74
2022/10/28 11:28:21;;;;;;;13.90;7.30;;;;;;;21.50;54.02;100219.98;106040;1288;61192;-75
2022/10/28 11:31:15;;;;;;;15.80;7.30;;;;;;;21.53;55.04;100220.02;106103;1287;74003;-73
2022/10/28 11:34:20;;;;;;;13.20;7.70;;;;;;;22.26;53.43;100213.08;106110;1289;68625;-74
2022/10/28 11:37:30;;;;;;;12.90;7.10;;;;;;;23.01;51.35;100208.31;106096;1288;71384;-74
2022/10/28 11:41:00;;;;;;;12.30;6.90;;;;;;;23.74;49.70;100205.23;106115;1288;58167;-74
2022/10/28 11:43:56;;;;;;;14.50;7.10;;;;;;;24.19;47.60;100200.57;106042;1292;60601;-76
2022/10/28 11:47:05;;;;;;;14.30;7.30;;;;;;;24.22;46.72;100194.21;106126;1288;71759;-74
2022/10/28 11:50:42;;;;;;;13.70;7.40;;;;;;;24.20;46.93;100179.91;106113;1289;68646;-76
2022/10/28 11:54:19;;;;;;;12.80;7.30;;;;;;;24.19;46.97;100182.47;106104;1289;72407;-74
2022/10/28 11:57:17;;;;;;;17.20;8.50;;;;;;;24.11;47.14;100182.70;106105;1282;57241;-75
2022/10/28 12:00:47;;;;;;;15.40;8.90;;;;;;;23.87;47.19;100178.05;105967;1289;60164;-74
2022/10/28 12:04:05;;;;;;;14.10;7.60;;;;;;;23.69;48.11;100175.30;105967;1290;74797;-76
2022/10/28 12:07:09;;;;;;;15.20;8.20;;;;;;;23.60;48.17;100169.25;105935;1291;68161;-75
2022/10/28 12:10:10;;;;;;;15.10;9.30;;;;;;;23.13;49.23;100168.27;105922;1292;74002;-75
2022/10/28 12:13:45;;;;;;;16.90;8.70;;;;;;;22.95;50.08;100166.38;106105;1288;57775;-75
2022/10/28 12:17:13;;;;;;;15.90;9.00;;;;;;;22.37;51.37;100174.06;106013;1290;61118;-75
2022/10/28 12:20:23;;;;;;;16.50;9.40;;;;;;;21.93;52.96;100175.44;106095;1289;72713;-76
2022/10/28 12:23:17;;;;;;;15.90;9.40;;;;;;;21.46;54.67;100177.23;105995;1289;66585;-75
2022/10/28 12:26:10;;;;;;;16.20;9.30;;;;;;;21.12;55.99;100171.07;105928;1292;73509;-75
2022/10/28 12:29:05;;;;;;;17.40;9.30;;;;;;;21.07;56.51;100165.64;105983;1298;57831;-75
2022/10/28 12:32:04;;;;;;;20.50;9.10;;;;;;;20.98;56.94;100156.23;105995;1289;61261;-76
2022/10/28 12:35:16;;;;;;;15.40;9.20;;;;;;;20.68;57.93;100154.48;106098;1289;72711;-74
2022/10/28 12:38:12;;;;;;;20.50;9.70;;;;;;;20.36;58.95;100152.12;106089;1288;68123;-74
2022/10/28 12:41:20;;;;;;;16.10;9.30;;;;;;;20.09;59.95;100149.57;106109;1281;72316;-74
2022/10/28 12:44:18;;;;;;;19.10;10.30;;;;;;;19.88;60.98;100150.83;105995;1291;57649;-75
2022/10/28 12:47:17;;;;;;;16.90;9.90;;;;;;;19.69;61.88;100158.84;106099;1289;59980;-76
2022/10/28 12:50:38;;;;;;;19.00;10.80;;;;;;;19.65;62.53;100157.87;106108;1287;73848;-74
2022/10/28 12:53:43;;;;;;;21.70;10.80;;;;;;;19.68;62.91;100151.30;106012;1289;67597;-75
2022/10/28 12:56:47;;;;;;;20.10;10.30;;;;;;;19.73;62.94;100150.11;106009;1288;72702;-75
2022/10/28 12:59:46;;;;;;;15.90;9.50;;;;;;;19.77;63.01;100145.05;105975;1296;58093;-75
2022/10/28 13:02:42;;;;;;;17.70;9.10;;;;;;;19.79;63.02;100144.51;105958;1289;59844;-75